Latest Coastal Weather Observations for Orbost

IDV60701

Issued at 1:12 am EDT Tuesday 19 October 2021 (issued every 10 minutes, with the page automatically refreshed every 10 minutes)

About coastal observations | Map of coastal stations | Coastal observations for VIC | Marine services | Other Formats
Station Details ID: 084145 Name: ORBOST Lat: -37.69 Lon: 148.47 Height: 62.65 m
Data from the previous 72 hours. | See also: Recent months at Orbost
Date/Time
EDT
Wind Sea
Height
m
Swell Vis
km
Cloud Weather Temp
°C
Press
MSL
hPa
Rain since
9am
mm
Dir  Spd
kts
Gust
kts
Height
m
Period
s
Dir
19/01:00am N 4 5 - - - - - - - 10.6 1017.5 12.2
19/12:30am WNW 3 4 - - - - - - - 10.9 1017.7 12.0
19/12:00am NW 1 3 - - - - - - Rain 10.9 1017.7 10.6
 
Date/Time
EDT
Wind Sea
Height
m
Swell Vis
km
Cloud Weather Temp
°C
Press
MSL
hPa
Rain since
9am
mm
Dir  Spd
kts
Gust
kts
Height
m
Period
s
Dir
18/11:30pm N 2 3 - - - - - - - 11.1 1017.7 9.0
18/11:00pm WSW 2 3 - - - - - - - 11.0 1017.6 8.6
18/10:30pm WSW 3 6 - - - - - - - 11.2 1017.8 5.6
18/10:00pm S 5 8 - - - - - - - 11.4 1017.1 4.2
18/09:30pm SW 5 8 - - - - - - - 12.4 1016.9 2.4
18/09:00pm SSW 2 3 - - - - - - - 13.2 1015.9 0.6
18/08:30pm SSW 4 7 - - - - - - - 13.7 1015.3 0.6
18/08:00pm SW 5 9 - - - - - - - 14.1 1015.1 0.6
18/07:30pm S 4 6 - - - - - - - 14.1 1013.7 0.6
18/07:00pm S 5 8 - - - - - - - 14.5 1013.0 0.6
18/06:30pm S 5 7 - - - - - - - 15.9 1012.2 0.6
18/06:00pm CALM 0 1 - - - - - - - 17.2 1011.5 0.6
18/05:30pm W 2 4 - - - - - - - 17.1 1011.6 0.6
18/05:00pm NNE 4 7 - - - - - - - 16.7 1011.8 0.6
18/04:30pm N 3 5 - - - - - - - 16.5 1012.4 0.6
18/04:00pm W 2 5 - - - - - - - 16.1 1012.9 0.6
18/03:30pm W 9 13 - - - - - - - 15.6 1013.5 0.2
18/03:28pm W 8 13 - - - - - - - 15.8 1013.4 0.0
18/03:00pm NW 8 15 - - - - - - - 20.8 1011.8 0.0
18/02:30pm NW 7 15 - - - - - - - 21.3 1011.6 0.0
18/02:00pm NW 5 10 - - - - - - - 21.3 1011.7 0.0
18/01:30pm WNW 3 6 - - - - - - - 21.2 1011.8 0.0
18/01:00pm W 3 5 - - - - - - - 20.5 1012.0 0.0
18/12:30pm WNW 3 5 - - - - - - - 20.6 1012.2 0.0
18/12:00pm NNW 6 10 - - - - - - - 20.3 1012.6 0.0
18/11:30am NW 6 9 - - - - - - - 20.1 1012.9 0.0
18/11:00am NW 5 11 - - - - - - - 19.8 1013.0 0.0
18/10:30am WNW 6 10 - - - - - - - 19.2 1013.2 0.0
18/10:00am WNW 2 4 - - - - - - - 18.1 1013.3 0.0
18/09:30am WSW 1 5 - - - - - - - 16.6 1013.4 0.0
18/09:00am CALM 0 0 - - - - - - - 14.7 1013.3 0.0
18/08:30am SSW 1 2 - - - - - - - 12.1 1013.2 0.0
18/08:00am CALM 0 0 - - - - - - - 9.7 1013.1 0.0
18/07:30am CALM 0 0 - - - - - - - 8.4 1013.0 0.0
18/07:00am CALM 0 0 - - - - - - - 8.2 1012.9 0.0
18/06:30am CALM 0 0 - - - - - - - 6.7 1012.9 0.0
18/06:00am CALM 0 0 - - - - - - - 6.7 1012.8 0.0
18/05:30am NNW 1 2 - - - - - - - 6.5 1013.0 0.0
18/05:00am CALM 0 0 - - - - - - - 6.5 1013.0 0.0
18/04:30am NNE 1 2 - - - - - - - 6.9 1013.0 0.0
18/04:00am ENE 1 1 - - - - - - - 7.0 1013.3 0.0
18/03:30am CALM 0 0 - - - - - - - 6.8 1013.7 0.0
18/03:00am NNW 2 3 - - - - - - - 6.3 1013.8 0.0
18/02:30am CALM 0 1 - - - - - - - 7.2 1014.0 0.0
18/02:00am NNE 4 5 - - - - - - - 7.6 1014.3 0.0
18/01:30am N 3 4 - - - - - - - 7.5 1014.9 0.0
18/01:00am NNW 1 2 - - - - - - - 7.6 1015.1 0.0
18/12:30am N 3 4 - - - - - - - 7.2 1015.1 0.0
18/12:00am N 2 3 - - - - - - - 8.1 1015.0 0.0
 
Date/Time
EDT
Wind Sea
Height
m
Swell Vis
km
Cloud Weather Temp
°C
Press
MSL
hPa
Rain since
9am
mm
Dir  Spd
kts
Gust
kts
Height
m
Period
s
Dir
17/11:30pm N 2 3 - - - - - - - 8.1 1015.2 0.0
17/11:00pm NNW 1 1 - - - - - - - 8.9 1015.2 0.0
17/10:30pm CALM 0 0 - - - - - - - 8.7 1015.3 0.0
17/10:00pm CALM 0 0 - - - - - - - 9.2 1015.2 0.0
17/09:30pm ENE 2 2 - - - - - - - 9.5 1015.0 0.0
17/09:00pm CALM 0 1 - - - - - - - 9.8 1015.0 0.0
17/08:30pm E 1 2 - - - - - - - 10.3 1014.6 0.0
17/08:00pm E 2 2 - - - - - - - 11.3 1014.3 0.0
17/07:30pm ESE 1 3 - - - - - - - 12.1 1013.9 0.0
17/07:00pm SSE 2 4 - - - - - - - 13.1 1013.4 0.0
17/06:30pm SSE 4 6 - - - - - - - 14.1 1013.1 0.0
17/06:00pm SSE 3 5 - - - - - - - 13.9 1012.8 0.0
17/05:30pm SSE 4 7 - - - - - - - 14.0 1012.6 0.0
17/05:00pm SE 5 9 - - - - - - - 15.1 1012.4 0.0
17/04:30pm SSE 5 7 - - - - - - - 15.2 1012.1 0.0
17/04:00pm SSE 5 8 - - - - - - - 15.3 1012.3 0.0
17/03:30pm SSE 5 9 - - - - - - - 15.8 1012.3 0.0
17/03:00pm S 6 10 - - - - - - - 15.4 1012.6 0.0
17/02:30pm S 5 9 - - - - - - - 16.1 1012.9 0.0
17/02:00pm S 6 10 - - - - - - - 15.6 1013.1 0.0
17/01:30pm SSW 5 7 - - - - - - - 15.7 1013.4 0.0
17/01:00pm SSW 6 10 - - - - - - - 15.5 1013.7 0.0
17/12:30pm SW 5 9 - - - - - - - 15.8 1013.9 0.0
17/12:00pm SW 7 9 - - - - - - - 14.7 1014.4 0.0
17/11:30am WSW 4 8 - - - - - - - 14.6 1014.5 0.0
17/11:00am W 5 8 - - - - - - - 13.9 1014.7 0.0
17/10:30am W 7 10 - - - - - - - 13.5 1014.9 0.0
17/10:00am W 5 10 - - - - - - - 13.6 1014.6 0.0
17/09:30am WNW 8 11 - - - - - - - 13.0 1014.6 0.0
17/09:00am WNW 7 11 - - - - - - - 12.3 1014.6 6.2
17/08:30am WNW 6 8 - - - - - - - 11.6 1014.3 6.2
17/08:00am NW 6 9 - - - - - - - 11.1 1013.7 6.2
17/07:30am NW 5 7 - - - - - - - 10.6 1013.5 6.2
17/07:00am NW 4 6 - - - - - - - 10.1 1013.2 6.2
17/06:30am WNW 5 10 - - - - - - - 10.1 1012.8 6.2
17/06:00am WNW 6 10 - - - - - - - 10.4 1012.5 6.2
17/05:30am W 6 10 - - - - - - - 10.4 1012.1 6.2
17/05:00am WNW 6 11 - - - - - - - 10.4 1011.7 6.2
17/04:30am WNW 6 11 - - - - - - - 10.2 1011.5 6.2
17/04:00am WNW 5 8 - - - - - - - 10.4 1011.4 6.2
17/03:30am WNW 6 10 - - - - - - - 10.3 1011.4 6.2
17/03:00am WNW 5 8 - - - - - - - 10.6 1011.3 6.2
17/02:30am WNW 6 10 - - - - - - - 10.4 1011.2 6.2
17/02:00am W 8 13 - - - - - - - 10.9 1011.2 6.2
17/01:30am W 9 15 - - - - - - - 11.1 1011.3 6.2
17/01:00am W 9 15 - - - - - - - 11.3 1011.3 6.2
17/12:30am W 7 14 - - - - - - - 11.1 1011.5 6.2
17/12:00am W 8 15 - - - - - - - 10.8 1011.4 6.2
 
Date/Time
EDT
Wind Sea
Height
m
Swell Vis
km
Cloud Weather Temp
°C
Press
MSL
hPa
Rain since
9am
mm
Dir  Spd
kts
Gust
kts
Height
m
Period
s
Dir
16/11:30pm W 8 13 - - - - - - - 10.8 1011.2 6.2
16/11:00pm W 10 18 - - - - - - - 11.0 1011.0 6.2
16/10:30pm W 9 14 - - - - - - - 11.1 1010.7 6.2
16/10:00pm W 10 16 - - - - - - - 11.1 1010.5 6.2
16/09:30pm W 9 16 - - - - - - - 11.6 1010.1 6.2
16/09:00pm W 12 22 - - - - - - - 12.1 1009.7 6.2
16/08:30pm W 9 13 - - - - - - - 12.1 1009.1 6.2
16/08:00pm W 10 21 - - - - - - - 12.6 1008.4 6.2
16/07:30pm W 12 20 - - - - - - - 12.8 1007.9 6.2
16/07:00pm W 13 21 - - - - - - - 13.6 1007.2 6.2
16/06:44pm W 15 25 - - - - - - - 14.3 1006.9 6.2
16/06:30pm W 14 22 - - - - - - - 14.5 1006.8 6.2
16/06:00pm W 15 29 - - - - - - - 15.4 1006.3 6.2
16/05:30pm W 17 27 - - - - - - - 15.6 1005.8 6.2
16/05:11pm W 15 26 - - - - - - - 15.7 1005.5 6.2
16/05:00pm WSW 15 25 - - - - - - - 16.1 1005.4 6.2
16/04:35pm W 17 27 - - - - - - - 16.0 1005.1 6.2
16/04:30pm W 18 28 - - - - - - - 16.1 1005.1 6.2
16/04:04pm W 17 28 - - - - - - - 15.2 1004.6 6.2
16/04:00pm W 17 24 - - - - - - - 15.8 1004.6 6.2
16/03:30pm WSW 10 17 - - - - - - - 14.6 1004.4 6.2
16/03:00pm WSW 10 20 - - - - - - Recent precip. 13.6 1004.4 6.0
16/02:30pm WSW 9 15 - - - - - - - 13.2 1004.3 5.8
16/02:08pm W 15 29 - - - - - - - 13.7 1004.0 5.0
16/02:00pm WSW 14 25 - - - - - - - 14.6 1003.8 5.0
16/01:30pm WSW 12 22 - - - - - - - 13.2 1003.9 5.0
16/01:00pm W 11 19 - - - - - - - 12.4 1003.7 4.8
16/12:30pm WSW 13 23 - - - - - - - 11.8 1003.6 4.6
16/12:00pm W 11 19 - - - - - - Rain 11.5 1003.3 4.4
16/11:30am W 11 18 - - - - - - - 11.2 1003.1 3.2
16/11:00am W 14 24 - - - - - - - 11.3 1002.9 1.2
16/10:30am W 16 28 - - - - - - - 11.5 1002.1 0.4
16/10:15am W 15 26 - - - - - - - 11.5 1001.8 0.2
16/10:00am W 14 24 - - - - - - - 11.5 1001.8 0.2
16/09:38am W 15 25 - - - - - - - 11.8 1001.3 0.0
16/09:30am W 13 20 - - - - - - - 11.9 1001.2 0.0
16/09:18am W 15 27 - - - - - - - 11.8 1000.9 0.0
16/09:00am W 15 23 - - - - - - Recent precip. 11.7 1000.6 13.8
16/08:30am W 13 20 - - - - - - - 11.7 1000.1 13.4
16/08:00am W 12 22 - - - - - - - 11.8 999.7 12.6
16/07:42am W 15 26 - - - - - - - 11.8 999.4 12.2
16/07:30am W 14 21 - - - - - - - 11.7 999.1 12.0
16/07:00am W 13 21 - - - - - - - 11.9 998.6 11.6
16/06:30am W 11 17 - - - - - - - 11.6 997.8 11.6
16/06:00am W 10 16 - - - - - - Rain 11.3 997.1 11.4
16/05:30am W 3 7 - - - - - - - 10.4 996.7 10.8
16/05:00am WNW 7 10 - - - - - - - 10.5 996.8 9.0
16/04:30am WNW 10 16 - - - - - - - 10.9 996.6 7.6
16/04:00am WNW 12 21 - - - - - - - 11.7 996.3 7.6
16/03:30am WNW 11 20 - - - - - - - 11.5 995.9 7.6
16/03:00am NNW 11 16 - - - - - - Rain 10.6 995.8 7.6
16/02:30am NNW 8 13 - - - - - - - 10.3 995.9 7.4
16/02:00am NW 9 14 - - - - - - - 10.7 996.1 7.2
16/01:30am NW 7 11 - - - - - - - 11.0 996.3 6.8

Other formats

Comma delimited format used in spreadsheet applications
http://www.bom.gov.au/fwo/IDV60701/IDV60701.95918.axf

JavaScript Object Notation format (JSON) in row-major order
http://www.bom.gov.au/fwo/IDV60701/IDV60701.95918.json

Data quality

Most of these data are generated automatically and are frequently updated. Quality checks on data are not normally performed. It is possible for incorrect values to appear. Refer to information at About Latest Weather Observations and please check the disclaimer before using these data.